sensor_id;sensor_type;location;lat;lon;timestamp;P1;durP1;ratioP1;P2;durP2;ratioP2
7340;SDS011;6870;50.944;6.932;2023-04-24T00:00:57;4.43;;;1.20;;
7340;SDS011;6870;50.944;6.932;2023-04-24T00:03:27;3.00;;;1.30;;
7340;SDS011;6870;50.944;6.932;2023-04-24T00:05:56;6.13;;;1.40;;
7340;SDS011;6870;50.944;6.932;2023-04-24T00:08:25;5.77;;;3.43;;
7340;SDS011;6870;50.944;6.932;2023-04-24T00:10:54;4.70;;;1.40;;
7340;SDS011;6870;50.944;6.932;2023-04-24T00:13:22;3.67;;;1.37;;
7340;SDS011;6870;50.944;6.932;2023-04-24T00:15:51;4.03;;;1.53;;
7340;SDS011;6870;50.944;6.932;2023-04-24T00:18:20;4.70;;;1.47;;
7340;SDS011;6870;50.944;6.932;2023-04-24T00:20:48;5.53;;;1.40;;
7340;SDS011;6870;50.944;6.932;2023-04-24T00:23:19;4.70;;;1.57;;
7340;SDS011;6870;50.944;6.932;2023-04-24T00:25:48;5.00;;;1.37;;
7340;SDS011;6870;50.944;6.932;2023-04-24T00:28:16;9.23;;;1.60;;
7340;SDS011;6870;50.944;6.932;2023-04-24T00:30:44;2.00;;;1.10;;
7340;SDS011;6870;50.944;6.932;2023-04-24T00:33:14;4.27;;;1.30;;
7340;SDS011;6870;50.944;6.932;2023-04-24T00:35:43;7.07;;;2.07;;
7340;SDS011;6870;50.944;6.932;2023-04-24T00:38:11;5.90;;;1.27;;
7340;SDS011;6870;50.944;6.932;2023-04-24T00:40:39;10.67;;;1.70;;
7340;SDS011;6870;50.944;6.932;2023-04-24T00:43:08;3.60;;;1.40;;
7340;SDS011;6870;50.944;6.932;2023-04-24T00:45:36;2.47;;;1.30;;
7340;SDS011;6870;50.944;6.932;2023-04-24T00:48:04;3.30;;;1.60;;
7340;SDS011;6870;50.944;6.932;2023-04-24T00:50:36;4.67;;;1.60;;
7340;SDS011;6870;50.944;6.932;2023-04-24T00:53:05;4.43;;;1.60;;
7340;SDS011;6870;50.944;6.932;2023-04-24T00:55:34;5.10;;;1.23;;
7340;SDS011;6870;50.944;6.932;2023-04-24T00:58:04;9.10;;;1.60;;
7340;SDS011;6870;50.944;6.932;2023-04-24T01:00:32;3.47;;;1.27;;
7340;SDS011;6870;50.944;6.932;2023-04-24T01:03:01;5.57;;;2.17;;
7340;SDS011;6870;50.944;6.932;2023-04-24T01:05:33;4.10;;;1.50;;
7340;SDS011;6870;50.944;6.932;2023-04-24T01:08:03;4.33;;;1.67;;
7340;SDS011;6870;50.944;6.932;2023-04-24T01:10:33;2.63;;;1.40;;
7340;SDS011;6870;50.944;6.932;2023-04-24T01:13:04;10.33;;;1.77;;
7340;SDS011;6870;50.944;6.932;2023-04-24T01:15:32;7.23;;;1.50;;
7340;SDS011;6870;50.944;6.932;2023-04-24T01:18:01;3.33;;;1.20;;
7340;SDS011;6870;50.944;6.932;2023-04-24T01:20:29;2.17;;;0.87;;
7340;SDS011;6870;50.944;6.932;2023-04-24T01:22:59;2.90;;;1.20;;
7340;SDS011;6870;50.944;6.932;2023-04-24T01:25:28;5.53;;;1.60;;
7340;SDS011;6870;50.944;6.932;2023-04-24T01:27:57;2.97;;;1.27;;
7340;SDS011;6870;50.944;6.932;2023-04-24T01:30:26;2.57;;;1.33;;
7340;SDS011;6870;50.944;6.932;2023-04-24T01:32:54;2.87;;;1.30;;
7340;SDS011;6870;50.944;6.932;2023-04-24T01:35:23;3.93;;;1.50;;
7340;SDS011;6870;50.944;6.932;2023-04-24T01:37:54;5.20;;;1.40;;
7340;SDS011;6870;50.944;6.932;2023-04-24T01:40:24;2.17;;;1.10;;
7340;SDS011;6870;50.944;6.932;2023-04-24T01:42:53;2.73;;;1.60;;
7340;SDS011;6870;50.944;6.932;2023-04-24T01:45:21;3.03;;;1.17;;
7340;SDS011;6870;50.944;6.932;2023-04-24T01:47:50;3.10;;;1.07;;
7340;SDS011;6870;50.944;6.932;2023-04-24T01:50:18;3.50;;;1.10;;
7340;SDS011;6870;50.944;6.932;2023-04-24T01:52:47;3.87;;;1.43;;
7340;SDS011;6870;50.944;6.932;2023-04-24T01:55:15;2.53;;;1.67;;
7340;SDS011;6870;50.944;6.932;2023-04-24T01:57:45;3.90;;;1.20;;
7340;SDS011;6870;50.944;6.932;2023-04-24T02:00:13;7.33;;;1.80;;
7340;SDS011;6870;50.944;6.932;2023-04-24T02:02:42;4.60;;;1.20;;
7340;SDS011;6870;50.944;6.932;2023-04-24T02:05:13;2.73;;;1.30;;
7340;SDS011;6870;50.944;6.932;2023-04-24T02:07:56;2.97;;;1.47;;
7340;SDS011;6870;50.944;6.932;2023-04-24T02:10:24;3.33;;;0.90;;
7340;SDS011;6870;50.944;6.932;2023-04-24T02:12:54;3.00;;;1.03;;
7340;SDS011;6870;50.944;6.932;2023-04-24T02:15:22;1.77;;;1.10;;
7340;SDS011;6870;50.944;6.932;2023-04-24T02:17:51;2.07;;;1.47;;
7340;SDS011;6870;50.944;6.932;2023-04-24T02:20:19;1.53;;;1.00;;
7340;SDS011;6870;50.944;6.932;2023-04-24T02:22:48;2.43;;;0.90;;
7340;SDS011;6870;50.944;6.932;2023-04-24T02:25:16;1.60;;;1.00;;
7340;SDS011;6870;50.944;6.932;2023-04-24T02:27:45;3.47;;;1.03;;
7340;SDS011;6870;50.944;6.932;2023-04-24T02:30:15;3.83;;;1.10;;
7340;SDS011;6870;50.944;6.932;2023-04-24T02:32:43;1.87;;;1.20;;
7340;SDS011;6870;50.944;6.932;2023-04-24T02:35:11;3.00;;;1.10;;
7340;SDS011;6870;50.944;6.932;2023-04-24T02:37:40;1.60;;;0.90;;
7340;SDS011;6870;50.944;6.932;2023-04-24T02:40:08;4.90;;;1.57;;
7340;SDS011;6870;50.944;6.932;2023-04-24T02:42:37;2.00;;;1.03;;
7340;SDS011;6870;50.944;6.932;2023-04-24T02:45:06;2.40;;;1.27;;
7340;SDS011;6870;50.944;6.932;2023-04-24T02:47:36;2.23;;;0.90;;
7340;SDS011;6870;50.944;6.932;2023-04-24T02:50:05;2.90;;;0.90;;
7340;SDS011;6870;50.944;6.932;2023-04-24T02:52:35;1.40;;;0.90;;
7340;SDS011;6870;50.944;6.932;2023-04-24T02:55:03;2.23;;;0.90;;
7340;SDS011;6870;50.944;6.932;2023-04-24T02:57:34;3.40;;;1.20;;
7340;SDS011;6870;50.944;6.932;2023-04-24T03:00:02;3.60;;;1.20;;
7340;SDS011;6870;50.944;6.932;2023-04-24T03:02:33;5.70;;;1.13;;
7340;SDS011;6870;50.944;6.932;2023-04-24T03:05:03;3.60;;;0.80;;
7340;SDS011;6870;50.944;6.932;2023-04-24T03:07:33;2.00;;;1.00;;
7340;SDS011;6870;50.944;6.932;2023-04-24T03:10:03;2.27;;;1.10;;
7340;SDS011;6870;50.944;6.932;2023-04-24T03:12:32;4.00;;;1.47;;
7340;SDS011;6870;50.944;6.932;2023-04-24T03:15:01;2.43;;;1.10;;
7340;SDS011;6870;50.944;6.932;2023-04-24T03:17:30;4.00;;;1.10;;
7340;SDS011;6870;50.944;6.932;2023-04-24T03:19:59;2.73;;;1.03;;
7340;SDS011;6870;50.944;6.932;2023-04-24T03:22:28;3.40;;;1.00;;
7340;SDS011;6870;50.944;6.932;2023-04-24T03:24:58;4.13;;;1.13;;
7340;SDS011;6870;50.944;6.932;2023-04-24T03:27:27;2.50;;;1.30;;
7340;SDS011;6870;50.944;6.932;2023-04-24T03:29:55;1.80;;;1.10;;
7340;SDS011;6870;50.944;6.932;2023-04-24T03:32:23;2.33;;;1.00;;
7340;SDS011;6870;50.944;6.932;2023-04-24T03:34:52;2.30;;;1.10;;
7340;SDS011;6870;50.944;6.932;2023-04-24T03:37:20;1.70;;;1.20;;
7340;SDS011;6870;50.944;6.932;2023-04-24T03:39:50;2.27;;;1.10;;
7340;SDS011;6870;50.944;6.932;2023-04-24T03:42:18;2.17;;;1.03;;
7340;SDS011;6870;50.944;6.932;2023-04-24T03:44:46;2.00;;;1.03;;
7340;SDS011;6870;50.944;6.932;2023-04-24T03:47:15;2.40;;;1.10;;
7340;SDS011;6870;50.944;6.932;2023-04-24T03:49:43;1.97;;;1.47;;
7340;SDS011;6870;50.944;6.932;2023-04-24T03:52:11;3.70;;;1.30;;
7340;SDS011;6870;50.944;6.932;2023-04-24T03:54:40;3.17;;;1.20;;
7340;SDS011;6870;50.944;6.932;2023-04-24T03:57:10;2.23;;;1.13;;
7340;SDS011;6870;50.944;6.932;2023-04-24T03:59:38;2.07;;;0.80;;
7340;SDS011;6870;50.944;6.932;2023-04-24T04:02:07;1.77;;;1.00;;
7340;SDS011;6870;50.944;6.932;2023-04-24T04:04:36;2.33;;;1.00;;
7340;SDS011;6870;50.944;6.932;2023-04-24T04:07:05;1.20;;;0.70;;
7340;SDS011;6870;50.944;6.932;2023-04-24T04:09:34;1.70;;;1.00;;
7340;SDS011;6870;50.944;6.932;2023-04-24T04:12:03;1.50;;;0.87;;
7340;SDS011;6870;50.944;6.932;2023-04-24T04:14:33;2.63;;;1.50;;
7340;SDS011;6870;50.944;6.932;2023-04-24T04:17:01;3.30;;;0.97;;
7340;SDS011;6870;50.944;6.932;2023-04-24T04:19:29;1.70;;;1.10;;
7340;SDS011;6870;50.944;6.932;2023-04-24T04:21:57;1.50;;;1.10;;
7340;SDS011;6870;50.944;6.932;2023-04-24T04:24:26;1.50;;;0.90;;
7340;SDS011;6870;50.944;6.932;2023-04-24T04:26:54;1.47;;;1.13;;
7340;SDS011;6870;50.944;6.932;2023-04-24T04:29:24;2.07;;;1.00;;
7340;SDS011;6870;50.944;6.932;2023-04-24T04:31:54;2.60;;;1.10;;
7340;SDS011;6870;50.944;6.932;2023-04-24T04:34:22;2.47;;;1.33;;
7340;SDS011;6870;50.944;6.932;2023-04-24T04:36:50;1.80;;;1.00;;
7340;SDS011;6870;50.944;6.932;2023-04-24T04:39:19;1.77;;;1.27;;
7340;SDS011;6870;50.944;6.932;2023-04-24T04:41:47;1.50;;;1.10;;
7340;SDS011;6870;50.944;6.932;2023-04-24T04:44:16;2.53;;;0.90;;
7340;SDS011;6870;50.944;6.932;2023-04-24T04:46:45;1.50;;;0.87;;
7340;SDS011;6870;50.944;6.932;2023-04-24T04:49:14;4.80;;;1.47;;
7340;SDS011;6870;50.944;6.932;2023-04-24T04:51:43;3.60;;;1.33;;
7340;SDS011;6870;50.944;6.932;2023-04-24T04:54:12;4.43;;;1.40;;
7340;SDS011;6870;50.944;6.932;2023-04-24T04:56:40;3.53;;;1.07;;
7340;SDS011;6870;50.944;6.932;2023-04-24T04:59:08;1.87;;;1.07;;
7340;SDS011;6870;50.944;6.932;2023-04-24T05:01:37;5.03;;;1.17;;
7340;SDS011;6870;50.944;6.932;2023-04-24T05:04:07;7.40;;;1.30;;
7340;SDS011;6870;50.944;6.932;2023-04-24T05:06:37;2.40;;;1.00;;
7340;SDS011;6870;50.944;6.932;2023-04-24T05:09:06;2.67;;;1.10;;
7340;SDS011;6870;50.944;6.932;2023-04-24T05:11:34;3.30;;;1.07;;
7340;SDS011;6870;50.944;6.932;2023-04-24T05:14:02;2.60;;;1.20;;
7340;SDS011;6870;50.944;6.932;2023-04-24T05:16:31;2.97;;;1.30;;
7340;SDS011;6870;50.944;6.932;2023-04-24T05:18:59;2.30;;;0.80;;
7340;SDS011;6870;50.944;6.932;2023-04-24T05:21:28;1.43;;;1.07;;
7340;SDS011;6870;50.944;6.932;2023-04-24T05:23:58;5.07;;;1.00;;
7340;SDS011;6870;50.944;6.932;2023-04-24T05:26:26;2.83;;;1.13;;
7340;SDS011;6870;50.944;6.932;2023-04-24T05:28:55;2.20;;;1.43;;
7340;SDS011;6870;50.944;6.932;2023-04-24T05:31:23;2.73;;;1.10;;
7340;SDS011;6870;50.944;6.932;2023-04-24T05:33:52;1.57;;;0.90;;
7340;SDS011;6870;50.944;6.932;2023-04-24T05:36:20;1.90;;;1.13;;
7340;SDS011;6870;50.944;6.932;2023-04-24T05:38:49;1.77;;;1.40;;
7340;SDS011;6870;50.944;6.932;2023-04-24T05:41:18;2.63;;;1.30;;
7340;SDS011;6870;50.944;6.932;2023-04-24T05:43:47;2.93;;;1.30;;
7340;SDS011;6870;50.944;6.932;2023-04-24T05:46:16;2.83;;;1.13;;
7340;SDS011;6870;50.944;6.932;2023-04-24T05:48:44;2.67;;;0.90;;
7340;SDS011;6870;50.944;6.932;2023-04-24T05:51:13;1.60;;;1.10;;
7340;SDS011;6870;50.944;6.932;2023-04-24T05:53:41;3.60;;;1.70;;
7340;SDS011;6870;50.944;6.932;2023-04-24T05:56:09;2.60;;;1.40;;
7340;SDS011;6870;50.944;6.932;2023-04-24T05:58:39;3.63;;;1.40;;
7340;SDS011;6870;50.944;6.932;2023-04-24T06:01:07;3.90;;;1.83;;
7340;SDS011;6870;50.944;6.932;2023-04-24T06:03:35;4.77;;;2.30;;
7340;SDS011;6870;50.944;6.932;2023-04-24T06:06:06;6.07;;;2.37;;
7340;SDS011;6870;50.944;6.932;2023-04-24T06:08:34;4.73;;;2.73;;
7340;SDS011;6870;50.944;6.932;2023-04-24T06:11:03;4.47;;;2.63;;
7340;SDS011;6870;50.944;6.932;2023-04-24T06:13:31;3.43;;;2.07;;
7340;SDS011;6870;50.944;6.932;2023-04-24T06:16:01;3.80;;;2.40;;
7340;SDS011;6870;50.944;6.932;2023-04-24T06:18:30;3.87;;;2.20;;
7340;SDS011;6870;50.944;6.932;2023-04-24T06:20:58;2.90;;;1.80;;
7340;SDS011;6870;50.944;6.932;2023-04-24T06:23:26;3.30;;;2.10;;
7340;SDS011;6870;50.944;6.932;2023-04-24T06:25:55;2.70;;;1.53;;
7340;SDS011;6870;50.944;6.932;2023-04-24T06:28:23;2.50;;;1.50;;
7340;SDS011;6870;50.944;6.932;2023-04-24T06:30:52;4.37;;;2.07;;
7340;SDS011;6870;50.944;6.932;2023-04-24T06:33:22;5.43;;;2.27;;
7340;SDS011;6870;50.944;6.932;2023-04-24T06:35:51;2.70;;;1.80;;
7340;SDS011;6870;50.944;6.932;2023-04-24T06:38:19;5.20;;;2.17;;
7340;SDS011;6870;50.944;6.932;2023-04-24T06:43:34;5.80;;;2.00;;
7340;SDS011;6870;50.944;6.932;2023-04-24T06:46:03;3.00;;;2.20;;
7340;SDS011;6870;50.944;6.932;2023-04-24T06:48:33;2.63;;;1.70;;
7340;SDS011;6870;50.944;6.932;2023-04-24T06:51:01;3.60;;;2.07;;
7340;SDS011;6870;50.944;6.932;2023-04-24T06:53:32;7.90;;;2.37;;
7340;SDS011;6870;50.944;6.932;2023-04-24T06:56:01;3.20;;;1.40;;
7340;SDS011;6870;50.944;6.932;2023-04-24T06:58:30;5.60;;;1.63;;
7340;SDS011;6870;50.944;6.932;2023-04-24T07:00:58;5.43;;;1.90;;
7340;SDS011;6870;50.944;6.932;2023-04-24T07:03:36;5.60;;;1.97;;
7340;SDS011;6870;50.944;6.932;2023-04-24T07:06:05;6.00;;;1.50;;
7340;SDS011;6870;50.944;6.932;2023-04-24T07:08:34;2.67;;;1.53;;
7340;SDS011;6870;50.944;6.932;2023-04-24T07:11:03;3.30;;;1.50;;
7340;SDS011;6870;50.944;6.932;2023-04-24T07:13:32;4.63;;;1.47;;
7340;SDS011;6870;50.944;6.932;2023-04-24T07:16:01;3.67;;;2.10;;
7340;SDS011;6870;50.944;6.932;2023-04-24T07:18:30;2.07;;;1.73;;
7340;SDS011;6870;50.944;6.932;2023-04-24T07:21:09;3.60;;;1.67;;
7340;SDS011;6870;50.944;6.932;2023-04-24T07:23:38;3.07;;;1.47;;
7340;SDS011;6870;50.944;6.932;2023-04-24T07:26:07;4.53;;;1.90;;
7340;SDS011;6870;50.944;6.932;2023-04-24T07:28:36;4.40;;;1.70;;
7340;SDS011;6870;50.944;6.932;2023-04-24T07:31:04;4.77;;;2.40;;
7340;SDS011;6870;50.944;6.932;2023-04-24T07:33:33;3.33;;;1.93;;
7340;SDS011;6870;50.944;6.932;2023-04-24T07:36:04;7.20;;;1.60;;
7340;SDS011;6870;50.944;6.932;2023-04-24T07:38:33;3.73;;;1.67;;
7340;SDS011;6870;50.944;6.932;2023-04-24T07:41:01;3.00;;;1.70;;
7340;SDS011;6870;50.944;6.932;2023-04-24T07:43:29;3.03;;;1.67;;
7340;SDS011;6870;50.944;6.932;2023-04-24T07:45:58;5.57;;;1.47;;
7340;SDS011;6870;50.944;6.932;2023-04-24T07:51:39;1.90;;;1.20;;
7340;SDS011;6870;50.944;6.932;2023-04-24T07:54:08;4.50;;;1.60;;
7340;SDS011;6870;50.944;6.932;2023-04-24T07:56:36;6.63;;;1.40;;
7340;SDS011;6870;50.944;6.932;2023-04-24T07:59:05;6.87;;;2.20;;
7340;SDS011;6870;50.944;6.932;2023-04-24T08:01:34;2.30;;;1.30;;
7340;SDS011;6870;50.944;6.932;2023-04-24T08:04:02;3.73;;;1.40;;
7340;SDS011;6870;50.944;6.932;2023-04-24T08:06:32;2.73;;;1.20;;
7340;SDS011;6870;50.944;6.932;2023-04-24T08:09:02;4.20;;;1.97;;
7340;SDS011;6870;50.944;6.932;2023-04-24T08:11:31;2.60;;;1.57;;
7340;SDS011;6870;50.944;6.932;2023-04-24T08:13:59;3.97;;;1.70;;
7340;SDS011;6870;50.944;6.932;2023-04-24T08:16:28;2.17;;;1.47;;
7340;SDS011;6870;50.944;6.932;2023-04-24T08:19:06;2.80;;;1.83;;
7340;SDS011;6870;50.944;6.932;2023-04-24T08:21:34;3.13;;;1.67;;
7340;SDS011;6870;50.944;6.932;2023-04-24T08:24:04;7.80;;;1.73;;
7340;SDS011;6870;50.944;6.932;2023-04-24T08:26:34;6.20;;;1.47;;
7340;SDS011;6870;50.944;6.932;2023-04-24T08:29:03;3.60;;;1.87;;
7340;SDS011;6870;50.944;6.932;2023-04-24T08:31:33;9.07;;;2.10;;
7340;SDS011;6870;50.944;6.932;2023-04-24T08:34:01;2.90;;;1.53;;
7340;SDS011;6870;50.944;6.932;2023-04-24T08:36:30;4.97;;;1.40;;
7340;SDS011;6870;50.944;6.932;2023-04-24T08:39:14;2.53;;;1.10;;
7340;SDS011;6870;50.944;6.932;2023-04-24T08:41:42;3.03;;;1.47;;
7340;SDS011;6870;50.944;6.932;2023-04-24T08:44:12;2.20;;;1.60;;
7340;SDS011;6870;50.944;6.932;2023-04-24T08:46:43;2.70;;;2.37;;
7340;SDS011;6870;50.944;6.932;2023-04-24T08:49:14;3.13;;;1.80;;
7340;SDS011;6870;50.944;6.932;2023-04-24T08:51:44;3.50;;;1.30;;
7340;SDS011;6870;50.944;6.932;2023-04-24T08:54:15;3.20;;;1.47;;
7340;SDS011;6870;50.944;6.932;2023-04-24T08:56:45;2.53;;;1.37;;
7340;SDS011;6870;50.944;6.932;2023-04-24T08:59:16;5.73;;;1.50;;
7340;SDS011;6870;50.944;6.932;2023-04-24T09:01:45;6.53;;;1.67;;
7340;SDS011;6870;50.944;6.932;2023-04-24T09:04:15;4.00;;;1.63;;
7340;SDS011;6870;50.944;6.932;2023-04-24T09:06:47;3.70;;;1.30;;
7340;SDS011;6870;50.944;6.932;2023-04-24T09:09:17;8.80;;;1.63;;
7340;SDS011;6870;50.944;6.932;2023-04-24T09:11:46;2.70;;;1.50;;
7340;SDS011;6870;50.944;6.932;2023-04-24T09:14:16;3.30;;;1.77;;
7340;SDS011;6870;50.944;6.932;2023-04-24T09:16:45;7.43;;;1.47;;
7340;SDS011;6870;50.944;6.932;2023-04-24T09:19:14;4.07;;;1.70;;
7340;SDS011;6870;50.944;6.932;2023-04-24T09:21:42;7.23;;;2.13;;
7340;SDS011;6870;50.944;6.932;2023-04-24T09:24:18;7.27;;;2.07;;
7340;SDS011;6870;50.944;6.932;2023-04-24T09:26:49;9.33;;;1.47;;
7340;SDS011;6870;50.944;6.932;2023-04-24T09:29:25;5.87;;;2.60;;
7340;SDS011;6870;50.944;6.932;2023-04-24T09:31:53;4.00;;;1.97;;
7340;SDS011;6870;50.944;6.932;2023-04-24T09:34:24;18.50;;;2.30;;
7340;SDS011;6870;50.944;6.932;2023-04-24T09:36:54;3.27;;;1.63;;
7340;SDS011;6870;50.944;6.932;2023-04-24T09:39:24;3.40;;;1.70;;
7340;SDS011;6870;50.944;6.932;2023-04-24T09:41:53;4.77;;;2.03;;
7340;SDS011;6870;50.944;6.932;2023-04-24T09:44:24;4.90;;;1.40;;
7340;SDS011;6870;50.944;6.932;2023-04-24T09:46:58;5.83;;;1.80;;
7340;SDS011;6870;50.944;6.932;2023-04-24T09:49:27;5.13;;;1.63;;
7340;SDS011;6870;50.944;6.932;2023-04-24T09:52:02;2.80;;;1.47;;
7340;SDS011;6870;50.944;6.932;2023-04-24T09:54:39;3.73;;;1.73;;
7340;SDS011;6870;50.944;6.932;2023-04-24T09:57:08;4.93;;;2.10;;
7340;SDS011;6870;50.944;6.932;2023-04-24T09:59:38;4.80;;;1.70;;
7340;SDS011;6870;50.944;6.932;2023-04-24T10:02:16;2.83;;;1.57;;
7340;SDS011;6870;50.944;6.932;2023-04-24T10:04:53;2.43;;;1.10;;
7340;SDS011;6870;50.944;6.932;2023-04-24T10:07:25;6.50;;;1.73;;
7340;SDS011;6870;50.944;6.932;2023-04-24T10:09:54;4.60;;;1.60;;
7340;SDS011;6870;50.944;6.932;2023-04-24T10:12:23;2.30;;;1.40;;
7340;SDS011;6870;50.944;6.932;2023-04-24T10:14:52;5.53;;;1.40;;
7340;SDS011;6870;50.944;6.932;2023-04-24T10:17:21;4.93;;;1.60;;
7340;SDS011;6870;50.944;6.932;2023-04-24T10:19:51;5.30;;;2.27;;
7340;SDS011;6870;50.944;6.932;2023-04-24T10:22:20;3.90;;;1.47;;
7340;SDS011;6870;50.944;6.932;2023-04-24T10:24:50;3.53;;;1.70;;
7340;SDS011;6870;50.944;6.932;2023-04-24T10:27:21;2.90;;;1.20;;
7340;SDS011;6870;50.944;6.932;2023-04-24T10:29:52;2.83;;;2.27;;
7340;SDS011;6870;50.944;6.932;2023-04-24T10:32:30;2.60;;;1.13;;
7340;SDS011;6870;50.944;6.932;2023-04-24T10:34:58;3.80;;;1.90;;
7340;SDS011;6870;50.944;6.932;2023-04-24T10:37:26;2.20;;;1.33;;
7340;SDS011;6870;50.944;6.932;2023-04-24T10:39:55;4.70;;;1.30;;
7340;SDS011;6870;50.944;6.932;2023-04-24T10:42:25;4.00;;;1.87;;
7340;SDS011;6870;50.944;6.932;2023-04-24T10:44:55;4.20;;;1.97;;
7340;SDS011;6870;50.944;6.932;2023-04-24T10:47:24;3.33;;;1.70;;
7340;SDS011;6870;50.944;6.932;2023-04-24T10:49:53;5.20;;;2.30;;
7340;SDS011;6870;50.944;6.932;2023-04-24T10:52:21;5.90;;;1.90;;
7340;SDS011;6870;50.944;6.932;2023-04-24T10:54:49;3.40;;;1.70;;
7340;SDS011;6870;50.944;6.932;2023-04-24T10:57:28;3.83;;;1.70;;
7340;SDS011;6870;50.944;6.932;2023-04-24T11:00:12;4.43;;;2.10;;
7340;SDS011;6870;50.944;6.932;2023-04-24T11:02:45;3.47;;;2.07;;
7340;SDS011;6870;50.944;6.932;2023-04-24T11:05:19;4.10;;;2.13;;
7340;SDS011;6870;50.944;6.932;2023-04-24T11:10:40;3.80;;;1.83;;
7340;SDS011;6870;50.944;6.932;2023-04-24T11:13:15;5.50;;;1.87;;
7340;SDS011;6870;50.944;6.932;2023-04-24T11:15:43;5.60;;;2.10;;
7340;SDS011;6870;50.944;6.932;2023-04-24T11:18:20;4.87;;;2.00;;
7340;SDS011;6870;50.944;6.932;2023-04-24T11:21:11;6.80;;;2.20;;
7340;SDS011;6870;50.944;6.932;2023-04-24T11:23:40;6.60;;;2.20;;
7340;SDS011;6870;50.944;6.932;2023-04-24T11:26:11;2.70;;;1.33;;
7340;SDS011;6870;50.944;6.932;2023-04-24T11:28:45;6.23;;;2.10;;
7340;SDS011;6870;50.944;6.932;2023-04-24T11:34:06;3.87;;;2.07;;
7340;SDS011;6870;50.944;6.932;2023-04-24T11:36:36;2.40;;;1.83;;
7340;SDS011;6870;50.944;6.932;2023-04-24T11:39:05;7.83;;;2.60;;
7340;SDS011;6870;50.944;6.932;2023-04-24T11:41:33;4.43;;;2.20;;
7340;SDS011;6870;50.944;6.932;2023-04-24T11:44:05;6.40;;;2.00;;
7340;SDS011;6870;50.944;6.932;2023-04-24T11:46:35;5.80;;;2.07;;
7340;SDS011;6870;50.944;6.932;2023-04-24T11:49:07;4.30;;;1.90;;
7340;SDS011;6870;50.944;6.932;2023-04-24T11:51:35;3.67;;;2.30;;
7340;SDS011;6870;50.944;6.932;2023-04-24T11:54:18;5.97;;;2.40;;
7340;SDS011;6870;50.944;6.932;2023-04-24T11:56:46;10.93;;;1.97;;
7340;SDS011;6870;50.944;6.932;2023-04-24T11:59:16;4.00;;;2.27;;
7340;SDS011;6870;50.944;6.932;2023-04-24T12:01:44;3.37;;;1.70;;
7340;SDS011;6870;50.944;6.932;2023-04-24T12:04:13;5.50;;;1.90;;
7340;SDS011;6870;50.944;6.932;2023-04-24T12:09:27;4.17;;;1.83;;
7340;SDS011;6870;50.944;6.932;2023-04-24T12:11:55;2.63;;;1.63;;
7340;SDS011;6870;50.944;6.932;2023-04-24T12:14:25;3.73;;;1.87;;
7340;SDS011;6870;50.944;6.932;2023-04-24T12:16:53;2.93;;;1.97;;
7340;SDS011;6870;50.944;6.932;2023-04-24T12:19:22;4.77;;;2.10;;
7340;SDS011;6870;50.944;6.932;2023-04-24T12:22:00;4.67;;;2.20;;
7340;SDS011;6870;50.944;6.932;2023-04-24T12:24:30;4.27;;;1.90;;
7340;SDS011;6870;50.944;6.932;2023-04-24T12:26:58;4.33;;;2.30;;
7340;SDS011;6870;50.944;6.932;2023-04-24T12:29:29;4.23;;;1.97;;
7340;SDS011;6870;50.944;6.932;2023-04-24T12:31:57;4.33;;;1.97;;
7340;SDS011;6870;50.944;6.932;2023-04-24T12:34:25;5.47;;;2.53;;
7340;SDS011;6870;50.944;6.932;2023-04-24T12:36:54;5.80;;;2.20;;
7340;SDS011;6870;50.944;6.932;2023-04-24T12:39:22;2.70;;;1.80;;
7340;SDS011;6870;50.944;6.932;2023-04-24T12:41:55;2.90;;;1.70;;
7340;SDS011;6870;50.944;6.932;2023-04-24T12:44:30;6.90;;;2.20;;
7340;SDS011;6870;50.944;6.932;2023-04-24T12:47:00;8.73;;;3.23;;
7340;SDS011;6870;50.944;6.932;2023-04-24T12:49:29;6.70;;;2.90;;
7340;SDS011;6870;50.944;6.932;2023-04-24T12:51:58;6.10;;;2.50;;
7340;SDS011;6870;50.944;6.932;2023-04-24T12:54:26;8.93;;;2.40;;
7340;SDS011;6870;50.944;6.932;2023-04-24T12:57:00;4.90;;;2.57;;
7340;SDS011;6870;50.944;6.932;2023-04-24T12:59:29;5.47;;;2.43;;
7340;SDS011;6870;50.944;6.932;2023-04-24T13:01:57;10.17;;;2.27;;
7340;SDS011;6870;50.944;6.932;2023-04-24T13:04:25;7.47;;;2.40;;
7340;SDS011;6870;50.944;6.932;2023-04-24T13:06:54;6.40;;;2.07;;
7340;SDS011;6870;50.944;6.932;2023-04-24T13:09:22;4.65;;;2.45;;
7340;SDS011;6870;50.944;6.932;2023-04-24T13:11:50;6.07;;;2.33;;
7340;SDS011;6870;50.944;6.932;2023-04-24T13:14:18;7.30;;;2.20;;
7340;SDS011;6870;50.944;6.932;2023-04-24T13:16:47;7.70;;;2.70;;
7340;SDS011;6870;50.944;6.932;2023-04-24T13:19:16;3.63;;;2.00;;
7340;SDS011;6870;50.944;6.932;2023-04-24T13:21:45;3.87;;;2.13;;
7340;SDS011;6870;50.944;6.932;2023-04-24T13:24:13;4.33;;;2.20;;
7340;SDS011;6870;50.944;6.932;2023-04-24T13:26:41;4.47;;;2.00;;
7340;SDS011;6870;50.944;6.932;2023-04-24T13:29:10;4.13;;;2.10;;
7340;SDS011;6870;50.944;6.932;2023-04-24T13:31:38;6.33;;;2.27;;
7340;SDS011;6870;50.944;6.932;2023-04-24T13:34:07;3.57;;;1.90;;
7340;SDS011;6870;50.944;6.932;2023-04-24T13:36:35;8.30;;;2.97;;
7340;SDS011;6870;50.944;6.932;2023-04-24T13:39:04;8.70;;;2.77;;
7340;SDS011;6870;50.944;6.932;2023-04-24T13:41:33;11.03;;;2.67;;
7340;SDS011;6870;50.944;6.932;2023-04-24T13:44:01;11.80;;;3.10;;
7340;SDS011;6870;50.944;6.932;2023-04-24T13:46:29;9.27;;;3.27;;
7340;SDS011;6870;50.944;6.932;2023-04-24T13:48:58;18.97;;;4.10;;
7340;SDS011;6870;50.944;6.932;2023-04-24T13:51:27;10.10;;;3.70;;
7340;SDS011;6870;50.944;6.932;2023-04-24T13:53:55;8.87;;;3.53;;
7340;SDS011;6870;50.944;6.932;2023-04-24T13:56:23;8.20;;;4.03;;
7340;SDS011;6870;50.944;6.932;2023-04-24T13:58:51;10.37;;;3.60;;
7340;SDS011;6870;50.944;6.932;2023-04-24T14:01:20;12.43;;;4.20;;
7340;SDS011;6870;50.944;6.932;2023-04-24T14:03:50;9.40;;;3.03;;
7340;SDS011;6870;50.944;6.932;2023-04-24T14:06:19;4.17;;;2.70;;
7340;SDS011;6870;50.944;6.932;2023-04-24T14:08:49;11.20;;;3.73;;
7340;SDS011;6870;50.944;6.932;2023-04-24T14:11:17;12.87;;;3.60;;
7340;SDS011;6870;50.944;6.932;2023-04-24T14:13:46;7.37;;;3.23;;
7340;SDS011;6870;50.944;6.932;2023-04-24T14:16:14;8.67;;;3.00;;
7340;SDS011;6870;50.944;6.932;2023-04-24T14:18:42;6.20;;;2.73;;
7340;SDS011;6870;50.944;6.932;2023-04-24T14:21:10;6.70;;;3.10;;
7340;SDS011;6870;50.944;6.932;2023-04-24T14:23:38;7.70;;;3.23;;
7340;SDS011;6870;50.944;6.932;2023-04-24T14:26:08;4.97;;;2.40;;
7340;SDS011;6870;50.944;6.932;2023-04-24T14:28:36;7.30;;;3.40;;
7340;SDS011;6870;50.944;6.932;2023-04-24T14:31:04;12.80;;;3.43;;
7340;SDS011;6870;50.944;6.932;2023-04-24T14:33:32;5.77;;;2.83;;
7340;SDS011;6870;50.944;6.932;2023-04-24T14:36:00;8.67;;;2.60;;
7340;SDS011;6870;50.944;6.932;2023-04-24T14:38:30;6.60;;;2.97;;
7340;SDS011;6870;50.944;6.932;2023-04-24T14:40:58;5.13;;;3.13;;
7340;SDS011;6870;50.944;6.932;2023-04-24T14:43:34;6.60;;;2.90;;
7340;SDS011;6870;50.944;6.932;2023-04-24T14:46:02;6.30;;;2.80;;
7340;SDS011;6870;50.944;6.932;2023-04-24T14:48:31;8.67;;;2.90;;
7340;SDS011;6870;50.944;6.932;2023-04-24T14:50:59;6.80;;;2.60;;
7340;SDS011;6870;50.944;6.932;2023-04-24T14:53:27;5.60;;;2.80;;
7340;SDS011;6870;50.944;6.932;2023-04-24T14:55:55;6.53;;;3.00;;
7340;SDS011;6870;50.944;6.932;2023-04-24T14:58:23;3.57;;;2.07;;
7340;SDS011;6870;50.944;6.932;2023-04-24T15:00:53;4.27;;;2.57;;
7340;SDS011;6870;50.944;6.932;2023-04-24T15:03:21;5.93;;;2.53;;
7340;SDS011;6870;50.944;6.932;2023-04-24T15:05:50;4.90;;;2.47;;
7340;SDS011;6870;50.944;6.932;2023-04-24T15:08:18;5.00;;;2.53;;
7340;SDS011;6870;50.944;6.932;2023-04-24T15:10:46;4.03;;;3.10;;
7340;SDS011;6870;50.944;6.932;2023-04-24T15:13:15;9.87;;;4.10;;
7340;SDS011;6870;50.944;6.932;2023-04-24T15:15:43;3.57;;;2.80;;
7340;SDS011;6870;50.944;6.932;2023-04-24T15:18:14;5.37;;;3.20;;
7340;SDS011;6870;50.944;6.932;2023-04-24T15:20:43;4.37;;;3.20;;
7340;SDS011;6870;50.944;6.932;2023-04-24T15:23:11;4.43;;;3.07;;
7340;SDS011;6870;50.944;6.932;2023-04-24T15:25:39;4.20;;;2.80;;
7340;SDS011;6870;50.944;6.932;2023-04-24T15:28:07;4.00;;;2.53;;
7340;SDS011;6870;50.944;6.932;2023-04-24T15:30:35;6.30;;;2.90;;
7340;SDS011;6870;50.944;6.932;2023-04-24T15:33:03;3.63;;;2.70;;
7340;SDS011;6870;50.944;6.932;2023-04-24T15:35:33;7.30;;;3.17;;
7340;SDS011;6870;50.944;6.932;2023-04-24T15:38:01;8.33;;;3.20;;
7340;SDS011;6870;50.944;6.932;2023-04-24T15:40:30;3.10;;;2.20;;
7340;SDS011;6870;50.944;6.932;2023-04-24T15:42:58;9.27;;;2.93;;